sensor_id;sensor_type;location;lat;lon;timestamp;P1;durP1;ratioP1;P2;durP2;ratioP2
5754;SDS011;2902;42.130;24.732;2024-02-21T00:02:22;48.80;;;30.43;;
5754;SDS011;2902;42.130;24.732;2024-02-21T00:04:49;49.23;;;30.07;;
5754;SDS011;2902;42.130;24.732;2024-02-21T00:07:16;49.87;;;30.93;;
5754;SDS011;2902;42.130;24.732;2024-02-21T00:09:43;44.70;;;29.43;;
5754;SDS011;2902;42.130;24.732;2024-02-21T00:12:09;55.77;;;31.50;;
5754;SDS011;2902;42.130;24.732;2024-02-21T00:14:38;53.47;;;31.37;;
5754;SDS011;2902;42.130;24.732;2024-02-21T00:17:05;55.17;;;32.57;;
5754;SDS011;2902;42.130;24.732;2024-02-21T00:19:34;48.80;;;32.23;;
5754;SDS011;2902;42.130;24.732;2024-02-21T00:22:01;54.97;;;31.10;;
5754;SDS011;2902;42.130;24.732;2024-02-21T00:24:28;52.23;;;31.00;;
5754;SDS011;2902;42.130;24.732;2024-02-21T00:26:55;57.23;;;32.43;;
5754;SDS011;2902;42.130;24.732;2024-02-21T00:29:21;53.40;;;30.07;;
5754;SDS011;2902;42.130;24.732;2024-02-21T00:31:48;56.60;;;32.73;;
5754;SDS011;2902;42.130;24.732;2024-02-21T00:34:15;55.47;;;31.00;;
5754;SDS011;2902;42.130;24.732;2024-02-21T00:36:43;58.00;;;31.87;;
5754;SDS011;2902;42.130;24.732;2024-02-21T00:39:10;47.50;;;30.93;;
5754;SDS011;2902;42.130;24.732;2024-02-21T00:41:37;48.67;;;32.30;;
5754;SDS011;2902;42.130;24.732;2024-02-21T00:44:04;52.83;;;32.40;;
5754;SDS011;2902;42.130;24.732;2024-02-21T00:46:31;53.27;;;32.37;;
5754;SDS011;2902;42.130;24.732;2024-02-21T00:48:58;52.50;;;30.27;;
5754;SDS011;2902;42.130;24.732;2024-02-21T00:51:24;50.83;;;31.80;;
5754;SDS011;2902;42.130;24.732;2024-02-21T00:53:52;48.70;;;31.87;;
5754;SDS011;2902;42.130;24.732;2024-02-21T00:56:19;51.10;;;30.77;;
5754;SDS011;2902;42.130;24.732;2024-02-21T00:58:46;51.13;;;31.27;;
5754;SDS011;2902;42.130;24.732;2024-02-21T01:01:12;50.83;;;30.63;;
5754;SDS011;2902;42.130;24.732;2024-02-21T01:03:39;51.63;;;32.30;;
5754;SDS011;2902;42.130;24.732;2024-02-21T01:06:06;52.27;;;31.23;;
5754;SDS011;2902;42.130;24.732;2024-02-21T01:08:33;54.67;;;30.83;;
5754;SDS011;2902;42.130;24.732;2024-02-21T01:11:01;57.67;;;34.20;;
5754;SDS011;2902;42.130;24.732;2024-02-21T01:13:28;53.27;;;32.50;;
5754;SDS011;2902;42.130;24.732;2024-02-21T01:15:54;51.70;;;30.93;;
5754;SDS011;2902;42.130;24.732;2024-02-21T01:18:21;56.90;;;33.43;;
5754;SDS011;2902;42.130;24.732;2024-02-21T01:20:48;56.77;;;32.53;;
5754;SDS011;2902;42.130;24.732;2024-02-21T01:23:14;54.80;;;33.03;;
5754;SDS011;2902;42.130;24.732;2024-02-21T01:25:41;51.13;;;31.83;;
5754;SDS011;2902;42.130;24.732;2024-02-21T01:28:09;54.33;;;32.90;;
5754;SDS011;2902;42.130;24.732;2024-02-21T01:30:36;52.13;;;31.93;;
5754;SDS011;2902;42.130;24.732;2024-02-21T01:33:03;49.43;;;31.80;;
5754;SDS011;2902;42.130;24.732;2024-02-21T01:35:30;46.53;;;30.13;;
5754;SDS011;2902;42.130;24.732;2024-02-21T01:37:56;48.30;;;31.10;;
5754;SDS011;2902;42.130;24.732;2024-02-21T01:40:23;49.63;;;30.67;;
5754;SDS011;2902;42.130;24.732;2024-02-21T01:42:50;45.67;;;28.93;;
5754;SDS011;2902;42.130;24.732;2024-02-21T01:45:20;49.77;;;30.40;;
5754;SDS011;2902;42.130;24.732;2024-02-21T01:47:46;46.93;;;29.83;;
5754;SDS011;2902;42.130;24.732;2024-02-21T01:50:14;46.70;;;28.70;;
5754;SDS011;2902;42.130;24.732;2024-02-21T01:52:41;47.93;;;28.20;;
5754;SDS011;2902;42.130;24.732;2024-02-21T01:55:09;41.10;;;27.53;;
5754;SDS011;2902;42.130;24.732;2024-02-21T01:57:38;46.10;;;28.77;;
5754;SDS011;2902;42.130;24.732;2024-02-21T02:00:06;44.83;;;27.53;;
5754;SDS011;2902;42.130;24.732;2024-02-21T02:02:36;39.53;;;26.97;;
5754;SDS011;2902;42.130;24.732;2024-02-21T02:05:04;46.40;;;27.93;;
5754;SDS011;2902;42.130;24.732;2024-02-21T02:07:31;41.90;;;27.80;;
5754;SDS011;2902;42.130;24.732;2024-02-21T02:09:58;42.03;;;26.87;;
5754;SDS011;2902;42.130;24.732;2024-02-21T02:12:25;43.60;;;28.57;;
5754;SDS011;2902;42.130;24.732;2024-02-21T02:14:57;46.27;;;30.03;;
5754;SDS011;2902;42.130;24.732;2024-02-21T02:17:24;42.33;;;27.57;;
5754;SDS011;2902;42.130;24.732;2024-02-21T02:19:52;41.57;;;27.43;;
5754;SDS011;2902;42.130;24.732;2024-02-21T02:22:19;40.47;;;27.70;;
5754;SDS011;2902;42.130;24.732;2024-02-21T02:24:56;40.43;;;28.20;;
5754;SDS011;2902;42.130;24.732;2024-02-21T02:27:23;43.80;;;28.57;;
5754;SDS011;2902;42.130;24.732;2024-02-21T02:29:49;45.30;;;27.50;;
5754;SDS011;2902;42.130;24.732;2024-02-21T02:32:17;40.43;;;26.90;;
5754;SDS011;2902;42.130;24.732;2024-02-21T02:34:44;47.37;;;29.73;;
5754;SDS011;2902;42.130;24.732;2024-02-21T02:37:10;44.30;;;30.07;;
5754;SDS011;2902;42.130;24.732;2024-02-21T02:39:37;41.40;;;27.40;;
5754;SDS011;2902;42.130;24.732;2024-02-21T02:42:05;42.70;;;28.60;;
5754;SDS011;2902;42.130;24.732;2024-02-21T02:44:32;42.03;;;28.23;;
5754;SDS011;2902;42.130;24.732;2024-02-21T02:46:59;42.33;;;28.77;;
5754;SDS011;2902;42.130;24.732;2024-02-21T02:49:26;43.27;;;27.63;;
5754;SDS011;2902;42.130;24.732;2024-02-21T02:51:52;41.47;;;28.40;;
5754;SDS011;2902;42.130;24.732;2024-02-21T02:54:19;44.07;;;28.80;;
5754;SDS011;2902;42.130;24.732;2024-02-21T02:56:46;46.07;;;28.67;;
5754;SDS011;2902;42.130;24.732;2024-02-21T02:59:14;47.20;;;30.00;;
5754;SDS011;2902;42.130;24.732;2024-02-21T03:01:40;49.60;;;29.87;;
5754;SDS011;2902;42.130;24.732;2024-02-21T03:04:07;42.80;;;28.43;;
5754;SDS011;2902;42.130;24.732;2024-02-21T03:06:34;44.57;;;30.40;;
5754;SDS011;2902;42.130;24.732;2024-02-21T03:09:01;42.77;;;29.30;;
5754;SDS011;2902;42.130;24.732;2024-02-21T03:11:33;47.87;;;29.57;;
5754;SDS011;2902;42.130;24.732;2024-02-21T03:14:00;50.10;;;30.37;;
5754;SDS011;2902;42.130;24.732;2024-02-21T03:16:28;46.60;;;30.57;;
5754;SDS011;2902;42.130;24.732;2024-02-21T03:18:55;44.83;;;29.60;;
5754;SDS011;2902;42.130;24.732;2024-02-21T03:21:21;43.53;;;28.83;;
5754;SDS011;2902;42.130;24.732;2024-02-21T03:23:48;40.47;;;26.87;;
5754;SDS011;2902;42.130;24.732;2024-02-21T03:26:15;47.33;;;30.23;;
5754;SDS011;2902;42.130;24.732;2024-02-21T03:28:42;46.57;;;28.70;;
5754;SDS011;2902;42.130;24.732;2024-02-21T03:31:10;50.17;;;30.77;;
5754;SDS011;2902;42.130;24.732;2024-02-21T03:33:39;44.03;;;28.20;;
5754;SDS011;2902;42.130;24.732;2024-02-21T03:36:05;45.73;;;29.70;;
5754;SDS011;2902;42.130;24.732;2024-02-21T03:38:33;46.80;;;30.33;;
5754;SDS011;2902;42.130;24.732;2024-02-21T03:40:59;45.37;;;30.13;;
5754;SDS011;2902;42.130;24.732;2024-02-21T03:43:26;44.67;;;29.53;;
5754;SDS011;2902;42.130;24.732;2024-02-21T03:45:53;49.30;;;30.30;;
5754;SDS011;2902;42.130;24.732;2024-02-21T03:48:20;51.90;;;30.70;;
5754;SDS011;2902;42.130;24.732;2024-02-21T03:50:48;43.13;;;28.60;;
5754;SDS011;2902;42.130;24.732;2024-02-21T03:53:14;47.00;;;30.40;;
5754;SDS011;2902;42.130;24.732;2024-02-21T03:55:41;45.90;;;29.57;;
5754;SDS011;2902;42.130;24.732;2024-02-21T03:58:08;44.33;;;28.53;;
5754;SDS011;2902;42.130;24.732;2024-02-21T04:00:35;47.53;;;29.83;;
5754;SDS011;2902;42.130;24.732;2024-02-21T04:03:01;41.07;;;28.27;;
5754;SDS011;2902;42.130;24.732;2024-02-21T04:05:28;46.40;;;28.90;;
5754;SDS011;2902;42.130;24.732;2024-02-21T04:07:56;43.30;;;29.07;;
5754;SDS011;2902;42.130;24.732;2024-02-21T04:10:23;43.20;;;29.30;;
5754;SDS011;2902;42.130;24.732;2024-02-21T04:12:50;42.27;;;29.20;;
5754;SDS011;2902;42.130;24.732;2024-02-21T04:15:17;46.83;;;29.03;;
5754;SDS011;2902;42.130;24.732;2024-02-21T04:17:44;38.03;;;27.80;;
5754;SDS011;2902;42.130;24.732;2024-02-21T04:20:13;40.37;;;27.17;;
5754;SDS011;2902;42.130;24.732;2024-02-21T04:22:42;41.17;;;26.73;;
5754;SDS011;2902;42.130;24.732;2024-02-21T04:25:10;35.60;;;25.43;;
5754;SDS011;2902;42.130;24.732;2024-02-21T04:27:37;35.83;;;26.27;;
5754;SDS011;2902;42.130;24.732;2024-02-21T04:30:06;33.57;;;24.17;;
5754;SDS011;2902;42.130;24.732;2024-02-21T04:32:33;32.33;;;24.10;;
5754;SDS011;2902;42.130;24.732;2024-02-21T04:35:00;33.87;;;24.37;;
5754;SDS011;2902;42.130;24.732;2024-02-21T04:37:26;31.93;;;23.57;;
5754;SDS011;2902;42.130;24.732;2024-02-21T04:39:53;30.30;;;22.27;;
5754;SDS011;2902;42.130;24.732;2024-02-21T04:42:21;30.97;;;21.87;;
5754;SDS011;2902;42.130;24.732;2024-02-21T04:44:48;33.27;;;23.80;;
5754;SDS011;2902;42.130;24.732;2024-02-21T04:47:15;30.27;;;21.87;;
5754;SDS011;2902;42.130;24.732;2024-02-21T04:49:41;48.07;;;30.07;;
5754;SDS011;2902;42.130;24.732;2024-02-21T04:52:08;47.00;;;31.23;;
5754;SDS011;2902;42.130;24.732;2024-02-21T04:54:35;44.93;;;29.70;;
5754;SDS011;2902;42.130;24.732;2024-02-21T04:57:02;46.23;;;29.43;;
5754;SDS011;2902;42.130;24.732;2024-02-21T04:59:30;48.30;;;32.00;;
5754;SDS011;2902;42.130;24.732;2024-02-21T05:01:57;47.20;;;31.07;;
5754;SDS011;2902;42.130;24.732;2024-02-21T05:04:23;46.03;;;31.27;;
5754;SDS011;2902;42.130;24.732;2024-02-21T05:06:50;54.63;;;32.13;;
5754;SDS011;2902;42.130;24.732;2024-02-21T05:09:17;45.97;;;31.53;;
5754;SDS011;2902;42.130;24.732;2024-02-21T05:11:43;55.63;;;32.50;;
5754;SDS011;2902;42.130;24.732;2024-02-21T05:14:10;52.80;;;31.87;;
5754;SDS011;2902;42.130;24.732;2024-02-21T05:16:39;52.67;;;31.80;;
5754;SDS011;2902;42.130;24.732;2024-02-21T05:19:06;51.37;;;31.53;;
5754;SDS011;2902;42.130;24.732;2024-02-21T05:21:33;48.60;;;31.13;;
5754;SDS011;2902;42.130;24.732;2024-02-21T05:23:59;51.50;;;31.83;;
5754;SDS011;2902;42.130;24.732;2024-02-21T05:26:26;49.27;;;32.00;;
5754;SDS011;2902;42.130;24.732;2024-02-21T05:28:53;48.43;;;31.90;;
5754;SDS011;2902;42.130;24.732;2024-02-21T05:31:20;50.27;;;31.60;;
5754;SDS011;2902;42.130;24.732;2024-02-21T05:33:48;52.27;;;32.60;;
5754;SDS011;2902;42.130;24.732;2024-02-21T05:36:15;50.03;;;32.00;;
5754;SDS011;2902;42.130;24.732;2024-02-21T05:38:42;51.70;;;32.90;;
5754;SDS011;2902;42.130;24.732;2024-02-21T05:41:09;53.77;;;32.77;;
5754;SDS011;2902;42.130;24.732;2024-02-21T05:43:35;52.23;;;32.57;;
5754;SDS011;2902;42.130;24.732;2024-02-21T05:46:02;55.40;;;33.83;;
5754;SDS011;2902;42.130;24.732;2024-02-21T05:48:29;50.30;;;31.83;;
5754;SDS011;2902;42.130;24.732;2024-02-21T05:50:57;52.97;;;31.90;;
5754;SDS011;2902;42.130;24.732;2024-02-21T05:53:24;53.23;;;32.93;;
5754;SDS011;2902;42.130;24.732;2024-02-21T05:55:50;51.37;;;33.30;;
5754;SDS011;2902;42.130;24.732;2024-02-21T05:58:17;51.30;;;33.20;;
5754;SDS011;2902;42.130;24.732;2024-02-21T06:00:44;49.43;;;32.07;;
5754;SDS011;2902;42.130;24.732;2024-02-21T06:03:11;54.60;;;33.43;;
5754;SDS011;2902;42.130;24.732;2024-02-21T06:05:37;51.03;;;32.37;;
5754;SDS011;2902;42.130;24.732;2024-02-21T06:08:06;53.83;;;34.13;;
5754;SDS011;2902;42.130;24.732;2024-02-21T06:10:34;62.93;;;33.40;;
5754;SDS011;2902;42.130;24.732;2024-02-21T06:13:00;53.70;;;34.23;;
5754;SDS011;2902;42.130;24.732;2024-02-21T06:15:27;48.67;;;32.37;;
5754;SDS011;2902;42.130;24.732;2024-02-21T06:17:54;48.40;;;32.40;;
5754;SDS011;2902;42.130;24.732;2024-02-21T06:20:20;50.93;;;32.77;;
5754;SDS011;2902;42.130;24.732;2024-02-21T06:22:47;51.30;;;33.20;;
5754;SDS011;2902;42.130;24.732;2024-02-21T06:25:15;48.87;;;30.83;;
5754;SDS011;2902;42.130;24.732;2024-02-21T06:27:43;51.23;;;30.80;;
5754;SDS011;2902;42.130;24.732;2024-02-21T06:30:10;51.07;;;31.80;;
5754;SDS011;2902;42.130;24.732;2024-02-21T06:32:37;53.30;;;30.67;;
5754;SDS011;2902;42.130;24.732;2024-02-21T06:35:04;53.50;;;33.80;;
5754;SDS011;2902;42.130;24.732;2024-02-21T06:37:31;55.77;;;34.47;;
5754;SDS011;2902;42.130;24.732;2024-02-21T06:39:58;48.03;;;31.63;;
5754;SDS011;2902;42.130;24.732;2024-02-21T06:42:26;47.20;;;32.33;;
5754;SDS011;2902;42.130;24.732;2024-02-21T06:44:54;51.83;;;32.60;;
5754;SDS011;2902;42.130;24.732;2024-02-21T06:47:21;48.27;;;31.97;;
5754;SDS011;2902;42.130;24.732;2024-02-21T06:49:48;50.17;;;32.13;;
5754;SDS011;2902;42.130;24.732;2024-02-21T06:52:17;49.27;;;32.07;;
5754;SDS011;2902;42.130;24.732;2024-02-21T06:54:45;45.17;;;31.73;;
5754;SDS011;2902;42.130;24.732;2024-02-21T06:57:12;56.30;;;35.20;;
5754;SDS011;2902;42.130;24.732;2024-02-21T06:59:40;54.60;;;38.80;;
5754;SDS011;2902;42.130;24.732;2024-02-21T07:02:07;65.03;;;40.00;;
5754;SDS011;2902;42.130;24.732;2024-02-21T07:04:34;57.27;;;36.63;;
5754;SDS011;2902;42.130;24.732;2024-02-21T07:07:00;53.17;;;32.83;;
5754;SDS011;2902;42.130;24.732;2024-02-21T07:09:27;51.47;;;34.73;;
5754;SDS011;2902;42.130;24.732;2024-02-21T07:11:56;41.23;;;25.93;;
5754;SDS011;2902;42.130;24.732;2024-02-21T07:14:23;36.17;;;24.20;;
5754;SDS011;2902;42.130;24.732;2024-02-21T07:16:52;29.23;;;20.90;;
5754;SDS011;2902;42.130;24.732;2024-02-21T07:19:19;28.90;;;20.47;;
5754;SDS011;2902;42.130;24.732;2024-02-21T07:21:46;34.93;;;21.87;;
5754;SDS011;2902;42.130;24.732;2024-02-21T07:24:13;26.60;;;19.23;;
5754;SDS011;2902;42.130;24.732;2024-02-21T07:26:40;25.97;;;19.43;;
5754;SDS011;2902;42.130;24.732;2024-02-21T07:29:08;31.77;;;19.53;;
5754;SDS011;2902;42.130;24.732;2024-02-21T07:31:38;28.07;;;18.67;;
5754;SDS011;2902;42.130;24.732;2024-02-21T07:34:08;30.83;;;19.70;;
5754;SDS011;2902;42.130;24.732;2024-02-21T07:36:34;24.33;;;18.17;;
5754;SDS011;2902;42.130;24.732;2024-02-21T07:39:02;23.63;;;17.23;;
5754;SDS011;2902;42.130;24.732;2024-02-21T07:41:29;24.57;;;17.03;;
5754;SDS011;2902;42.130;24.732;2024-02-21T07:43:56;20.63;;;15.67;;
5754;SDS011;2902;42.130;24.732;2024-02-21T07:46:23;24.40;;;16.30;;
5754;SDS011;2902;42.130;24.732;2024-02-21T07:48:50;27.07;;;18.23;;
5754;SDS011;2902;42.130;24.732;2024-02-21T07:51:18;22.10;;;15.73;;
5754;SDS011;2902;42.130;24.732;2024-02-21T07:53:45;20.30;;;15.93;;
5754;SDS011;2902;42.130;24.732;2024-02-21T07:56:12;22.70;;;16.37;;
5754;SDS011;2902;42.130;24.732;2024-02-21T07:58:40;19.83;;;16.30;;
5754;SDS011;2902;42.130;24.732;2024-02-21T08:01:07;28.17;;;18.03;;
5754;SDS011;2902;42.130;24.732;2024-02-21T08:03:34;20.33;;;16.97;;
5754;SDS011;2902;42.130;24.732;2024-02-21T08:06:01;24.53;;;17.20;;
5754;SDS011;2902;42.130;24.732;2024-02-21T08:08:30;22.23;;;16.87;;
5754;SDS011;2902;42.130;24.732;2024-02-21T08:10:56;22.53;;;16.87;;
5754;SDS011;2902;42.130;24.732;2024-02-21T08:13:23;26.90;;;18.33;;
5754;SDS011;2902;42.130;24.732;2024-02-21T08:15:50;24.27;;;16.53;;
5754;SDS011;2902;42.130;24.732;2024-02-21T08:18:17;15.90;;;13.33;;
5754;SDS011;2902;42.130;24.732;2024-02-21T08:20:43;14.13;;;12.00;;
5754;SDS011;2902;42.130;24.732;2024-02-21T08:23:10;12.17;;;10.93;;
5754;SDS011;2902;42.130;24.732;2024-02-21T08:25:38;18.97;;;10.63;;
5754;SDS011;2902;42.130;24.732;2024-02-21T08:28:05;17.73;;;12.20;;
5754;SDS011;2902;42.130;24.732;2024-02-21T08:30:32;20.50;;;12.37;;
5754;SDS011;2902;42.130;24.732;2024-02-21T08:32:59;17.03;;;11.43;;
5754;SDS011;2902;42.130;24.732;2024-02-21T08:35:26;15.53;;;11.70;;
5754;SDS011;2902;42.130;24.732;2024-02-21T08:37:52;35.57;;;13.13;;
5754;SDS011;2902;42.130;24.732;2024-02-21T08:40:19;11.63;;;10.43;;
5754;SDS011;2902;42.130;24.732;2024-02-21T08:42:48;12.50;;;11.23;;
5754;SDS011;2902;42.130;24.732;2024-02-21T08:45:15;11.20;;;10.07;;
5754;SDS011;2902;42.130;24.732;2024-02-21T08:47:42;14.03;;;9.93;;
5754;SDS011;2902;42.130;24.732;2024-02-21T08:50:09;11.23;;;9.07;;
5754;SDS011;2902;42.130;24.732;2024-02-21T08:52:36;10.20;;;9.10;;
5754;SDS011;2902;42.130;24.732;2024-02-21T08:55:03;10.40;;;9.27;;
5754;SDS011;2902;42.130;24.732;2024-02-21T08:57:30;9.00;;;8.00;;
5754;SDS011;2902;42.130;24.732;2024-02-21T09:00:03;14.80;;;9.27;;
5754;SDS011;2902;42.130;24.732;2024-02-21T09:02:35;14.20;;;9.90;;
5754;SDS011;2902;42.130;24.732;2024-02-21T09:05:03;16.00;;;10.77;;
5754;SDS011;2902;42.130;24.732;2024-02-21T09:07:31;14.30;;;10.33;;
5754;SDS011;2902;42.130;24.732;2024-02-21T09:09:57;11.73;;;10.67;;
5754;SDS011;2902;42.130;24.732;2024-02-21T09:12:24;28.43;;;10.73;;
5754;SDS011;2902;42.130;24.732;2024-02-21T09:14:51;9.70;;;8.90;;
5754;SDS011;2902;42.130;24.732;2024-02-21T09:17:19;11.33;;;10.30;;
5754;SDS011;2902;42.130;24.732;2024-02-21T09:19:46;16.83;;;10.73;;
5754;SDS011;2902;42.130;24.732;2024-02-21T09:22:13;23.67;;;10.27;;
5754;SDS011;2902;42.130;24.732;2024-02-21T09:24:40;14.20;;;10.37;;
5754;SDS011;2902;42.130;24.732;2024-02-21T09:27:06;13.07;;;10.83;;
5754;SDS011;2902;42.130;24.732;2024-02-21T09:29:33;11.53;;;10.43;;
5754;SDS011;2902;42.130;24.732;2024-02-21T09:32:00;15.30;;;11.87;;
5754;SDS011;2902;42.130;24.732;2024-02-21T09:34:29;13.70;;;12.30;;
5754;SDS011;2902;42.130;24.732;2024-02-21T09:36:56;9.50;;;8.50;;
5754;SDS011;2902;42.130;24.732;2024-02-21T09:39:22;18.70;;;8.30;;
5754;SDS011;2902;42.130;24.732;2024-02-21T09:41:50;53.97;;;10.73;;
5754;SDS011;2902;42.130;24.732;2024-02-21T09:44:20;33.20;;;9.53;;
5754;SDS011;2902;42.130;24.732;2024-02-21T09:46:50;12.27;;;10.77;;
5754;SDS011;2902;42.130;24.732;2024-02-21T09:49:30;23.23;;;9.80;;
5754;SDS011;2902;42.130;24.732;2024-02-21T09:51:59;8.20;;;7.60;;
5754;SDS011;2902;42.130;24.732;2024-02-21T09:54:28;19.03;;;8.13;;
5754;SDS011;2902;42.130;24.732;2024-02-21T09:56:55;13.87;;;7.80;;
5754;SDS011;2902;42.130;24.732;2024-02-21T09:59:23;75.27;;;10.10;;
5754;SDS011;2902;42.130;24.732;2024-02-21T10:01:50;69.40;;;10.27;;
5754;SDS011;2902;42.130;24.732;2024-02-21T10:04:17;7.67;;;6.73;;
5754;SDS011;2902;42.130;24.732;2024-02-21T10:06:46;8.27;;;7.57;;
5754;SDS011;2902;42.130;24.732;2024-02-21T10:09:19;7.20;;;6.70;;
5754;SDS011;2902;42.130;24.732;2024-02-21T10:11:48;8.57;;;7.13;;
5754;SDS011;2902;42.130;24.732;2024-02-21T10:14:14;8.10;;;7.30;;
5754;SDS011;2902;42.130;24.732;2024-02-21T10:16:42;7.63;;;7.10;;
5754;SDS011;2902;42.130;24.732;2024-02-21T10:19:15;7.87;;;7.23;;
5754;SDS011;2902;42.130;24.732;2024-02-21T10:21:43;8.57;;;7.90;;
5754;SDS011;2902;42.130;24.732;2024-02-21T10:24:12;18.53;;;7.80;;
5754;SDS011;2902;42.130;24.732;2024-02-21T10:26:39;14.30;;;6.80;;
5754;SDS011;2902;42.130;24.732;2024-02-21T10:29:05;20.07;;;7.07;;
5754;SDS011;2902;42.130;24.732;2024-02-21T10:31:32;15.87;;;6.60;;
5754;SDS011;2902;42.130;24.732;2024-02-21T10:33:59;8.40;;;7.60;;
5754;SDS011;2902;42.130;24.732;2024-02-21T10:36:28;7.67;;;7.07;;
5754;SDS011;2902;42.130;24.732;2024-02-21T10:38:55;8.33;;;6.10;;
5754;SDS011;2902;42.130;24.732;2024-02-21T10:41:24;10.03;;;6.77;;
5754;SDS011;2902;42.130;24.732;2024-02-21T10:43:52;44.60;;;10.23;;
5754;SDS011;2902;42.130;24.732;2024-02-21T10:46:21;6.33;;;5.93;;
5754;SDS011;2902;42.130;24.732;2024-02-21T10:48:52;6.87;;;6.37;;
5754;SDS011;2902;42.130;24.732;2024-02-21T10:51:27;7.57;;;6.63;;
5754;SDS011;2902;42.130;24.732;2024-02-21T10:54:02;7.67;;;6.80;;
5754;SDS011;2902;42.130;24.732;2024-02-21T10:56:41;7.43;;;6.83;;
5754;SDS011;2902;42.130;24.732;2024-02-21T10:59:08;7.20;;;6.60;;
5754;SDS011;2902;42.130;24.732;2024-02-21T11:01:34;7.10;;;6.60;;
5754;SDS011;2902;42.130;24.732;2024-02-21T11:04:02;7.57;;;6.83;;
5754;SDS011;2902;42.130;24.732;2024-02-21T11:06:31;18.60;;;7.43;;
5754;SDS011;2902;42.130;24.732;2024-02-21T11:09:00;7.20;;;6.60;;
5754;SDS011;2902;42.130;24.732;2024-02-21T11:11:29;8.43;;;7.53;;
5754;SDS011;2902;42.130;24.732;2024-02-21T11:14:04;6.83;;;6.23;;
5754;SDS011;2902;42.130;24.732;2024-02-21T11:16:35;72.73;;;10.67;;
5754;SDS011;2902;42.130;24.732;2024-02-21T11:19:04;6.50;;;5.67;;
5754;SDS011;2902;42.130;24.732;2024-02-21T11:21:32;6.70;;;5.97;;
5754;SDS011;2902;42.130;24.732;2024-02-21T11:24:00;6.33;;;5.63;;
5754;SDS011;2902;42.130;24.732;2024-02-21T11:26:27;6.73;;;6.13;;
5754;SDS011;2902;42.130;24.732;2024-02-21T11:28:56;6.73;;;6.20;;
5754;SDS011;2902;42.130;24.732;2024-02-21T11:31:26;15.43;;;6.90;;
5754;SDS011;2902;42.130;24.732;2024-02-21T11:33:53;6.00;;;5.40;;
5754;SDS011;2902;42.130;24.732;2024-02-21T11:36:23;6.13;;;5.63;;
5754;SDS011;2902;42.130;24.732;2024-02-21T11:38:51;6.67;;;6.10;;
5754;SDS011;2902;42.130;24.732;2024-02-21T11:41:18;15.50;;;6.33;;
5754;SDS011;2902;42.130;24.732;2024-02-21T11:43:46;18.93;;;5.50;;
5754;SDS011;2902;42.130;24.732;2024-02-21T11:46:12;17.10;;;5.60;;
5754;SDS011;2902;42.130;24.732;2024-02-21T11:48:42;5.03;;;4.63;;
5754;SDS011;2902;42.130;24.732;2024-02-21T11:51:09;8.17;;;5.17;;
5754;SDS011;2902;42.130;24.732;2024-02-21T11:53:36;5.97;;;5.47;;
5754;SDS011;2902;42.130;24.732;2024-02-21T11:56:03;5.10;;;4.73;;
5754;SDS011;2902;42.130;24.732;2024-02-21T11:58:30;7.73;;;4.63;;
5754;SDS011;2902;42.130;24.732;2024-02-21T12:00:57;4.47;;;4.17;;
5754;SDS011;2902;42.130;24.732;2024-02-21T12:03:25;6.13;;;5.50;;
5754;SDS011;2902;42.130;24.732;2024-02-21T12:05:54;27.80;;;5.30;;
5754;SDS011;2902;42.130;24.732;2024-02-21T12:08:22;29.57;;;6.10;;
5754;SDS011;2902;42.130;24.732;2024-02-21T12:10:49;5.97;;;4.40;;
5754;SDS011;2902;42.130;24.732;2024-02-21T12:13:16;4.50;;;4.07;;
5754;SDS011;2902;42.130;24.732;2024-02-21T12:15:47;8.07;;;4.40;;
5754;SDS011;2902;42.130;24.732;2024-02-21T12:18:13;5.23;;;4.93;;
5754;SDS011;2902;42.130;24.732;2024-02-21T12:20:40;4.90;;;4.60;;
5754;SDS011;2902;42.130;24.732;2024-02-21T12:23:10;4.77;;;4.57;;
5754;SDS011;2902;42.130;24.732;2024-02-21T12:25:38;4.77;;;4.40;;
5754;SDS011;2902;42.130;24.732;2024-02-21T12:28:05;4.97;;;4.47;;
5754;SDS011;2902;42.130;24.732;2024-02-21T12:30:32;4.90;;;4.27;;
5754;SDS011;2902;42.130;24.732;2024-02-21T12:33:00;4.00;;;3.80;;
5754;SDS011;2902;42.130;24.732;2024-02-21T12:35:27;8.17;;;4.00;;
5754;SDS011;2902;42.130;24.732;2024-02-21T12:37:56;6.27;;;3.97;;
5754;SDS011;2902;42.130;24.732;2024-02-21T12:40:24;4.23;;;4.03;;
5754;SDS011;2902;42.130;24.732;2024-02-21T12:42:51;8.97;;;4.50;;
5754;SDS011;2902;42.130;24.732;2024-02-21T12:45:18;11.70;;;4.40;;
5754;SDS011;2902;42.130;24.732;2024-02-21T12:47:45;13.13;;;4.80;;
5754;SDS011;2902;42.130;24.732;2024-02-21T12:50:12;4.97;;;4.53;;
5754;SDS011;2902;42.130;24.732;2024-02-21T12:52:40;10.13;;;3.60;;
5754;SDS011;2902;42.130;24.732;2024-02-21T12:55:07;4.73;;;3.30;;
5754;SDS011;2902;42.130;24.732;2024-02-21T12:57:37;4.63;;;4.20;;
5754;SDS011;2902;42.130;24.732;2024-02-21T13:00:06;23.93;;;5.40;;
5754;SDS011;2902;42.130;24.732;2024-02-21T13:02:34;27.53;;;5.33;;
5754;SDS011;2902;42.130;24.732;2024-02-21T13:05:00;10.15;;;4.40;;
5754;SDS011;2902;42.130;24.732;2024-02-21T13:07:28;8.90;;;3.73;;
5754;SDS011;2902;42.130;24.732;2024-02-21T13:09:57;14.23;;;3.50;;
5754;SDS011;2902;42.130;24.732;2024-02-21T13:12:24;5.27;;;2.80;;
5754;SDS011;2902;42.130;24.732;2024-02-21T13:14:54;16.77;;;3.83;;
5754;SDS011;2902;42.130;24.732;2024-02-21T13:17:20;7.17;;;3.13;;
5754;SDS011;2902;42.130;24.732;2024-02-21T13:19:48;4.37;;;3.70;;
5754;SDS011;2902;42.130;24.732;2024-02-21T13:22:14;5.30;;;2.70;;
5754;SDS011;2902;42.130;24.732;2024-02-21T13:24:41;4.03;;;3.83;;
5754;SDS011;2902;42.130;24.732;2024-02-21T13:27:08;3.40;;;3.10;;
5754;SDS011;2902;42.130;24.732;2024-02-21T13:29:35;3.43;;;3.23;;
5754;SDS011;2902;42.130;24.732;2024-02-21T13:32:03;4.00;;;3.20;;
5754;SDS011;2902;42.130;24.732;2024-02-21T13:34:31;3.40;;;3.20;;
5754;SDS011;2902;42.130;24.732;2024-02-21T13:36:57;10.80;;;3.70;;
5754;SDS011;2902;42.130;24.732;2024-02-21T13:39:25;3.97;;;3.77;;
5754;SDS011;2902;42.130;24.732;2024-02-21T13:41:51;4.80;;;4.20;;
5754;SDS011;2902;42.130;24.732;2024-02-21T13:44:18;4.07;;;3.70;;
5754;SDS011;2902;42.130;24.732;2024-02-21T13:46:45;23.20;;;5.13;;
5754;SDS011;2902;42.130;24.732;2024-02-21T13:49:13;7.43;;;4.03;;
5754;SDS011;2902;42.130;24.732;2024-02-21T13:51:40;9.43;;;3.90;;
5754;SDS011;2902;42.130;24.732;2024-02-21T13:54:09;5.50;;;4.17;;
5754;SDS011;2902;42.130;24.732;2024-02-21T13:56:36;5.83;;;5.43;;
5754;SDS011;2902;42.130;24.732;2024-02-21T13:59:03;7.40;;;6.70;;
5754;SDS011;2902;42.130;24.732;2024-02-21T14:01:30;5.70;;;5.20;;
5754;SDS011;2902;42.130;24.732;2024-02-21T14:03:58;3.60;;;3.10;;
5754;SDS011;2902;42.130;24.732;2024-02-21T14:06:26;5.47;;;3.50;;
5754;SDS011;2902;42.130;24.732;2024-02-21T14:08:53;3.63;;;2.77;;
5754;SDS011;2902;42.130;24.732;2024-02-21T14:11:20;9.13;;;3.60;;
5754;SDS011;2902;42.130;24.732;2024-02-21T14:13:46;4.73;;;3.00;;
5754;SDS011;2902;42.130;24.732;2024-02-21T14:16:13;5.30;;;3.37;;
5754;SDS011;2902;42.130;24.732;2024-02-21T14:18:40;3.67;;;3.30;;
5754;SDS011;2902;42.130;24.732;2024-02-21T14:21:07;10.60;;;3.53;;
5754;SDS011;2902;42.130;24.732;2024-02-21T14:23:37;18.27;;;4.13;;
5754;SDS011;2902;42.130;24.732;2024-02-21T14:26:03;11.00;;;3.50;;
5754;SDS011;2902;42.130;24.732;2024-02-21T14:28:31;7.57;;;4.20;;
5754;SDS011;2902;42.130;24.732;2024-02-21T14:30:58;6.00;;;5.60;;
5754;SDS011;2902;42.130;24.732;2024-02-21T14:33:25;6.13;;;5.70;;
5754;SDS011;2902;42.130;24.732;2024-02-21T14:35:52;5.60;;;5.10;;
5754;SDS011;2902;42.130;24.732;2024-02-21T14:38:19;4.63;;;4.43;;
5754;SDS011;2902;42.130;24.732;2024-02-21T14:40:47;14.30;;;5.60;;
5754;SDS011;2902;42.130;24.732;2024-02-21T14:43:13;9.30;;;5.90;;
5754;SDS011;2902;42.130;24.732;2024-02-21T14:45:40;8.00;;;4.83;;